Flugplatz Purkshof

Für EDCX sind keine METAR/TAF Berichte vorhanden.
Es werden die Flugwettermeldungen vom Flugplatz Rostock-Laage Airport in 27 km Entfernung angezeigt.

Bericht für ETNL

vom 07.03. um 01:20 UTC

Wind 13 kt aus 270°

Sichtweite 10 km oder mehr

Temperatur 3.0°C

Taupunkt -2.0°C

Luftfeuchtigkeit 70%

Luftdruck 1023 hPa

ETNL 070120Z AUTO 27013KT 9999 // ////// 03/M02 Q1023 ///

Prognose für ETNL

vom 06.03. um 17:10 UTC

Am 06.03. zwischen 18:00 UTC und 06:00 UTC

Wind 15 kt aus 270° in Böen 25 kt

Sichtweite 10 km oder mehr

keine signifikanten Wettererscheinungen

aufgebrochene Bewölkung in 3000 ft

TAF ETNL 061710Z 0618/0706 27015G25KT 9999 NSW BKN030 BY ETGL
Impressum